createdAt,value
2022-12-06T18:02:29.955Z,17.33
2022-12-06T18:04:58.074Z,12.50
2022-12-06T18:07:25.995Z,9.55
2022-12-06T18:09:53.946Z,8.25
2022-12-06T18:12:21.633Z,7.78
2022-12-06T18:14:49.498Z,7.60
2022-12-06T18:17:17.333Z,6.38
2022-12-06T18:19:47.001Z,10.57
2022-12-06T18:22:15.620Z,8.52
2022-12-06T18:24:44.957Z,8.75
2022-12-06T18:27:12.998Z,7.05
2022-12-06T18:29:40.770Z,7.68
2022-12-06T18:32:08.771Z,10.20
2022-12-06T18:34:37.111Z,9.20
2022-12-06T18:37:04.882Z,7.85
2022-12-06T18:39:33.118Z,8.00
2022-12-06T18:42:01.085Z,10.77
2022-12-06T18:44:28.719Z,8.30
2022-12-06T18:46:56.650Z,12.20
2022-12-06T18:49:24.341Z,8.85
2022-12-06T18:51:52.204Z,9.60
2022-12-06T18:54:20.751Z,9.98
2022-12-06T18:56:48.457Z,13.23
2022-12-06T18:59:16.194Z,16.65
2022-12-06T19:01:44.296Z,12.18
2022-12-06T19:04:14.810Z,14.75
2022-12-06T19:06:43.752Z,19.80
2022-12-06T19:09:14.904Z,17.45
2022-12-06T19:11:46.935Z,12.48
2022-12-06T19:14:17.161Z,16.20
2022-12-06T19:16:48.768Z,14.32
2022-12-06T19:19:22.027Z,9.50
2022-12-06T19:21:51.688Z,11.75
2022-12-06T19:24:23.471Z,11.07
2022-12-06T19:26:53.113Z,11.93
2022-12-06T19:29:22.123Z,11.05
2022-12-06T19:31:50.272Z,10.80
2022-12-06T19:34:25.157Z,10.63
2022-12-06T19:36:54.965Z,10.82
2022-12-06T19:39:24.228Z,11.50
2022-12-06T19:42:10.584Z,11.02
2022-12-06T19:44:38.627Z,13.98
2022-12-06T19:47:06.311Z,10.77
2022-12-06T19:49:34.271Z,15.10
2022-12-06T19:52:02.046Z,15.60
2022-12-06T19:54:32.565Z,8.10
2022-12-06T19:57:01.973Z,10.95
2022-12-06T19:59:34.247Z,11.45
2022-12-06T20:02:04.133Z,14.80
2022-12-06T20:04:37.947Z,10.25
2022-12-06T20:07:07.548Z,12.27
2022-12-06T20:09:35.293Z,15.98
2022-12-06T20:12:05.461Z,17.02
2022-12-06T20:14:44.491Z,17.73
2022-12-06T20:17:22.833Z,17.13
2022-12-06T20:19:51.094Z,17.80
2022-12-06T20:22:20.139Z,12.90
2022-12-06T20:24:48.473Z,14.48
2022-12-06T20:27:16.315Z,10.53
2022-12-06T20:29:43.981Z,18.92
2022-12-06T20:32:11.774Z,19.25
2022-12-06T20:34:39.796Z,14.05
2022-12-06T20:37:07.545Z,14.57
2022-12-06T20:39:36.259Z,19.85
2022-12-06T20:42:06.463Z,17.52
2022-12-06T20:44:35.028Z,12.10
2022-12-06T20:47:02.880Z,15.15
2022-12-06T20:49:31.111Z,12.93
2022-12-06T20:52:00.609Z,14.65
2022-12-06T20:54:28.578Z,14.18
2022-12-06T20:56:56.433Z,13.73
2022-12-06T20:59:24.385Z,10.75
2022-12-06T21:01:52.197Z,21.77
2022-12-06T21:04:20.277Z,23.75
2022-12-06T21:06:47.877Z,13.90
2022-12-06T21:09:15.901Z,14.10
2022-12-06T21:11:43.785Z,18.45
2022-12-06T21:14:15.453Z,17.58
2022-12-06T21:16:44.129Z,18.13
2022-12-06T21:19:16.858Z,13.02
2022-12-06T21:21:49.383Z,17.10
2022-12-06T21:24:20.899Z,13.40
2022-12-06T21:26:49.476Z,14.00
2022-12-06T21:29:29.805Z,15.65
2022-12-06T21:32:01.773Z,12.95
2022-12-06T21:34:29.672Z,14.32
2022-12-06T21:36:57.340Z,15.07
2022-12-06T21:39:25.541Z,15.38
2022-12-06T21:41:54.097Z,13.48
2022-12-06T21:44:22.076Z,13.23
2022-12-06T21:46:54.019Z,13.52
2022-12-06T21:49:21.893Z,16.27
2022-12-06T21:51:51.080Z,17.55
2022-12-06T21:54:20.714Z,18.77
2022-12-06T21:56:48.551Z,21.52
2022-12-06T21:59:16.324Z,21.23
2022-12-06T22:01:44.287Z,21.27
2022-12-06T22:04:12.781Z,27.13
2022-12-06T22:06:41.932Z,27.55
2022-12-06T22:09:11.393Z,25.73
2022-12-06T22:11:40.121Z,23.45
2022-12-06T22:14:08.719Z,25.98
2022-12-06T22:16:36.438Z,26.52
2022-12-06T22:19:04.588Z,25.15
2022-12-06T22:21:33.271Z,24.45
2022-12-06T22:24:01.190Z,22.92
2022-12-06T22:26:31.118Z,26.55
2022-12-06T22:29:00.677Z,25.75
2022-12-06T22:31:33.718Z,26.27
2022-12-06T22:34:02.541Z,23.60
2022-12-06T22:36:31.102Z,22.15
2022-12-06T22:39:02.146Z,23.52
2022-12-06T22:41:30.533Z,19.15
2022-12-06T22:44:04.959Z,20.90
2022-12-06T22:46:34.508Z,18.50
2022-12-06T22:49:02.494Z,18.30
2022-12-06T22:51:37.054Z,18.60
2022-12-06T22:54:09.927Z,19.33
2022-12-06T22:56:40.695Z,18.35
2022-12-06T22:59:09.523Z,21.88
2022-12-06T23:01:37.253Z,17.75
2022-12-06T23:04:07.075Z,16.08
2022-12-06T23:06:35.947Z,14.80
2022-12-06T23:09:06.485Z,16.95
2022-12-06T23:11:36.424Z,17.40
2022-12-06T23:14:05.188Z,14.75
2022-12-06T23:16:34.861Z,15.93
2022-12-06T23:19:03.834Z,14.98
2022-12-06T23:24:06.297Z,13.68
2022-12-06T23:26:41.051Z,14.80
2022-12-06T23:29:09.717Z,12.18
2022-12-06T23:31:40.939Z,13.55
2022-12-06T23:34:22.655Z,14.48
2022-12-06T23:36:50.665Z,14.63
2022-12-06T23:39:18.954Z,13.75
2022-12-06T23:41:46.911Z,14.43
2022-12-06T23:44:16.284Z,12.50
2022-12-06T23:46:44.599Z,14.45
2022-12-06T23:49:21.539Z,17.98
2022-12-06T23:51:49.800Z,14.35
2022-12-06T23:54:18.430Z,18.87
2022-12-06T23:56:47.105Z,13.80
2022-12-06T23:59:16.227Z,15.20
